Time;durP1;ratioP1;P1;durP2;ratioP2;P2;SDS_P1;SDS_P2;PMS_P1;PMS_P2;Temp;Humidity;BMP_temperature;BMP_pressure;BME280_temperature;BME280_humidity;BME280_pressure;Samples;Min_cycle;Max_cycle;Signal;HPM_P1;HPM_P2
2022/06/26 00:00:26;;;;;;;2.70;1.23;;;24.00;99.90;;;;;;5023513;28;20452;-78
2022/06/26 00:02:55;;;;;;;1.43;1.33;;;23.90;99.90;;;;;;5024833;28;20507;-77
2022/06/26 00:05:24;;;;;;;1.40;1.30;;;23.80;99.90;;;;;;5024724;28;20554;-77
2022/06/26 00:07:52;;;;;;;1.63;1.10;;;23.80;99.90;;;;;;5024254;28;20480;-77
2022/06/26 00:10:20;;;;;;;1.70;1.60;;;23.80;99.90;;;;;;5026215;28;20499;-78
2022/06/26 00:12:48;;;;;;;2.60;1.67;;;23.70;99.90;;;;;;5023476;28;20956;-77
2022/06/26 00:15:17;;;;;;;1.73;1.50;;;23.70;99.90;;;;;;5024472;28;20563;-77
2022/06/26 00:17:45;;;;;;;1.40;1.30;;;23.80;99.90;;;;;;5016962;28;20522;-78
2022/06/26 00:20:15;;;;;;;2.10;1.40;;;23.80;99.90;;;;;;5025383;28;20457;-78
2022/06/26 00:22:43;;;;;;;1.80;1.40;;;23.70;99.90;;;;;;5022934;28;20820;-78
2022/06/26 00:25:11;;;;;;;1.50;1.40;;;23.70;99.90;;;;;;5023472;28;20456;-78
2022/06/26 00:27:39;;;;;;;1.23;1.13;;;23.60;99.90;;;;;;5022703;28;20555;-78
2022/06/26 00:30:08;;;;;;;1.10;1.00;;;23.70;99.90;;;;;;5023299;28;20452;-78
2022/06/26 00:32:37;;;;;;;1.00;1.00;;;23.60;99.90;;;;;;5022199;28;20451;-78
2022/06/26 00:35:06;;;;;;;1.03;0.83;;;23.70;99.90;;;;;;5023370;28;20487;-78
2022/06/26 00:37:36;;;;;;;1.67;1.40;;;23.80;99.90;;;;;;5021423;28;20459;-77
2022/06/26 00:40:06;;;;;;;1.10;1.00;;;23.90;99.90;;;;;;5023122;28;20457;-78
2022/06/26 00:42:34;;;;;;;2.17;0.90;;;23.80;99.90;;;;;;5024018;28;20457;-78
2022/06/26 00:45:02;;;;;;;0.93;0.93;;;23.80;99.90;;;;;;5025469;28;22372;-78
2022/06/26 00:47:31;;;;;;;1.10;1.10;;;23.50;99.90;;;;;;5023177;28;20478;-78
2022/06/26 00:50:00;;;;;;;1.20;1.10;;;23.60;99.90;;;;;;5027285;28;20567;-78
2022/06/26 00:52:29;;;;;;;1.47;1.10;;;23.70;99.90;;;;;;5019914;28;20551;-78
2022/06/26 00:54:58;;;;;;;1.13;1.07;;;23.70;99.90;;;;;;5023984;28;20483;-78
2022/06/26 00:57:28;;;;;;;1.00;1.00;;;23.80;99.90;;;;;;5022753;28;20456;-77
2022/06/26 00:59:57;;;;;;;1.20;1.10;;;23.90;99.90;;;;;;5023405;28;20456;-78
2022/06/26 01:02:25;;;;;;;1.30;1.20;;;23.80;99.90;;;;;;5055595;28;20456;-77
2022/06/26 01:04:54;;;;;;;3.40;1.20;;;23.90;99.90;;;;;;5021407;28;20494;-78
2022/06/26 01:07:22;;;;;;;1.20;1.10;;;23.80;99.90;;;;;;5024601;28;21295;-78
2022/06/26 01:09:50;;;;;;;3.60;1.63;;;23.80;99.90;;;;;;5025271;28;20443;-78
2022/06/26 01:12:20;;;;;;;1.20;1.10;;;23.90;99.90;;;;;;5023561;28;20458;-78
2022/06/26 01:14:48;;;;;;;0.97;0.97;;;23.80;99.90;;;;;;5024446;28;20840;-78
2022/06/26 01:17:16;;;;;;;1.27;1.17;;;23.80;99.90;;;;;;5023422;28;20448;-77
2022/06/26 01:19:45;;;;;;;0.97;0.97;;;23.80;99.90;;;;;;5025613;28;20445;-78
2022/06/26 01:22:13;;;;;;;1.03;1.00;;;23.80;99.90;;;;;;5022497;28;20468;-78
2022/06/26 01:24:43;;;;;;;1.07;1.00;;;23.80;99.90;;;;;;5023167;28;21089;-78
2022/06/26 01:27:11;;;;;;;1.00;1.00;;;23.80;99.90;;;;;;5020455;28;20681;-78
2022/06/26 01:29:39;;;;;;;1.30;1.13;;;23.80;99.90;;;;;;5025448;28;20464;-78
2022/06/26 01:32:08;;;;;;;1.07;0.90;;;23.80;99.90;;;;;;5022799;28;20460;-79
2022/06/26 01:34:36;;;;;;;0.90;0.73;;;23.80;99.90;;;;;;5024536;28;20472;-78
2022/06/26 01:37:05;;;;;;;0.97;0.97;;;23.80;99.90;;;;;;5021792;28;20460;-78
2022/06/26 01:39:33;;;;;;;1.10;1.10;;;23.80;99.90;;;;;;5025100;28;21224;-78
2022/06/26 01:42:02;;;;;;;1.80;0.93;;;23.70;99.90;;;;;;5022513;28;20864;-77
2022/06/26 01:44:31;;;;;;;1.10;1.00;;;23.80;99.90;;;;;;5026831;28;20461;-78
2022/06/26 01:46:59;;;;;;;1.10;1.10;;;23.80;99.90;;;;;;5026534;28;20463;-76
2022/06/26 01:49:27;;;;;;;1.40;1.20;;;23.80;99.90;;;;;;5028248;28;20510;-78
2022/06/26 01:51:56;;;;;;;1.00;1.00;;;23.80;99.90;;;;;;5024177;28;20463;-78
2022/06/26 01:54:24;;;;;;;1.47;1.10;;;23.80;99.90;;;;;;5027710;28;20524;-77
2022/06/26 01:56:52;;;;;;;1.00;1.00;;;23.70;99.90;;;;;;5024228;28;20452;-78
2022/06/26 01:59:21;;;;;;;1.20;1.00;;;23.70;99.90;;;;;;5027396;28;20533;-79
2022/06/26 02:01:50;;;;;;;2.13;1.20;;;23.60;99.90;;;;;;5028305;28;20835;-78
2022/06/26 02:04:18;;;;;;;1.10;1.10;;;23.60;99.90;;;;;;5026780;28;20986;-78
2022/06/26 02:06:47;;;;;;;2.07;1.20;;;23.40;99.90;;;;;;5024950;28;20460;-78
2022/06/26 02:14:44;;;;;;;1.00;1.00;;;23.00;99.90;;;;;;5027340;28;20494;-79
2022/06/26 02:17:12;;;;;;;1.87;1.00;;;22.90;99.90;;;;;;5025275;28;21228;-78
2022/06/26 02:19:40;;;;;;;1.10;1.00;;;22.60;99.90;;;;;;5024303;28;21029;-78
2022/06/26 02:22:08;;;;;;;1.63;1.00;;;23.10;99.90;;;;;;5024053;28;20490;-78
2022/06/26 02:24:37;;;;;;;1.20;1.10;;;23.10;99.90;;;;;;5024754;28;20463;-78
2022/06/26 02:27:06;;;;;;;0.97;0.97;;;23.30;99.90;;;;;;5022841;28;20471;-79
2022/06/26 02:29:34;;;;;;;1.10;1.00;;;23.30;99.90;;;;;;5025465;28;20483;-78
2022/06/26 02:32:04;;;;;;;1.17;1.00;;;23.30;99.90;;;;;;5026488;28;20467;-78
2022/06/26 02:34:32;;;;;;;1.10;1.00;;;23.20;99.90;;;;;;5027433;28;20542;-79
2022/06/26 02:37:01;;;;;;;1.20;1.00;;;23.20;99.90;;;;;;5023805;28;20523;-79
2022/06/26 02:39:29;;;;;;;1.00;1.00;;;23.10;99.90;;;;;;5024705;28;20487;-79
2022/06/26 02:41:57;;;;;;;1.27;1.10;;;23.10;99.90;;;;;;5023031;28;20948;-79
2022/06/26 02:44:25;;;;;;;3.60;1.37;;;23.20;99.90;;;;;;5027495;28;20459;-78
2022/06/26 02:46:53;;;;;;;1.10;1.00;;;23.20;99.90;;;;;;5026106;28;20455;-79
2022/06/26 02:49:23;;;;;;;1.20;1.10;;;23.30;99.90;;;;;;5024972;28;20559;-79
2022/06/26 02:51:51;;;;;;;0.97;0.97;;;23.30;99.90;;;;;;5025541;28;20866;-79
2022/06/26 02:54:19;;;;;;;1.20;1.10;;;23.30;99.90;;;;;;5022812;28;20467;-79
2022/06/26 02:56:48;;;;;;;1.20;1.10;;;23.20;99.90;;;;;;5025116;28;20464;-79
2022/06/26 02:59:16;;;;;;;1.27;1.17;;;23.20;99.90;;;;;;5028080;28;20491;-78
2022/06/26 03:01:44;;;;;;;1.03;1.00;;;23.20;99.90;;;;;;5023162;28;20466;-78
2022/06/26 03:04:13;;;;;;;1.07;0.80;;;23.20;99.90;;;;;;5025480;28;20490;-78
2022/06/26 03:06:42;;;;;;;1.87;0.97;;;23.20;99.90;;;;;;5022797;28;20554;-78
2022/06/26 03:09:11;;;;;;;1.20;1.20;;;23.20;99.90;;;;;;5021506;28;21152;-77
2022/06/26 03:11:40;;;;;;;0.90;0.90;;;23.20;99.90;;;;;;5028160;28;20463;-78
2022/06/26 03:14:09;;;;;;;1.17;1.07;;;23.20;99.90;;;;;;5023844;28;20464;-78
2022/06/26 03:16:37;;;;;;;1.73;1.03;;;23.10;99.90;;;;;;5026971;28;20485;-80
2022/06/26 03:19:06;;;;;;;1.00;1.00;;;23.10;99.90;;;;;;5027468;28;20479;-77
2022/06/26 03:21:34;;;;;;;2.97;1.10;;;23.10;99.90;;;;;;5024300;28;20994;-78
2022/06/26 03:24:04;;;;;;;1.30;1.00;;;23.10;99.90;;;;;;5024379;28;20498;-78
2022/06/26 03:26:34;;;;;;;1.20;1.10;;;23.00;99.90;;;;;;5024487;28;20936;-78
2022/06/26 03:29:03;;;;;;;2.13;1.03;;;23.00;99.90;;;;;;5021319;28;20537;-78
2022/06/26 03:31:32;;;;;;;1.33;1.23;;;23.00;99.90;;;;;;5028847;28;20455;-78
2022/06/26 03:34:00;;;;;;;1.30;1.20;;;23.00;99.90;;;;;;5024301;28;20494;-77
2022/06/26 03:36:29;;;;;;;0.90;0.90;;;22.80;99.90;;;;;;5024197;28;20491;-78
2022/06/26 03:38:58;;;;;;;1.40;1.30;;;22.80;99.90;;;;;;5023560;28;20504;-78
2022/06/26 03:41:27;;;;;;;1.17;1.07;;;22.70;99.90;;;;;;5026549;28;20466;-78
2022/06/26 03:43:56;;;;;;;1.27;1.17;;;22.60;99.90;;;;;;5023584;28;20455;-78
2022/06/26 03:46:24;;;;;;;2.63;1.03;;;22.60;99.90;;;;;;5024283;28;20520;-78
2022/06/26 03:48:52;;;;;;;1.17;1.10;;;22.70;99.90;;;;;;5023320;28;20476;-78
2022/06/26 03:51:21;;;;;;;1.40;1.30;;;22.70;99.90;;;;;;5025639;28;20569;-77
2022/06/26 03:53:49;;;;;;;1.03;1.03;;;22.60;99.90;;;;;;5027130;28;20447;-77
2022/06/26 03:56:17;;;;;;;1.27;1.17;;;22.70;99.90;;;;;;5027777;28;20514;-77
2022/06/26 03:58:47;;;;;;;1.87;1.10;;;22.70;99.90;;;;;;5027551;28;20525;-77
2022/06/26 04:01:15;;;;;;;1.10;1.00;;;22.80;99.90;;;;;;5021413;28;20451;-78
2022/06/26 04:03:43;;;;;;;1.70;1.60;;;22.80;99.90;;;;;;5022604;28;20486;-77
2022/06/26 04:06:12;;;;;;;1.30;1.20;;;22.90;99.90;;;;;;5025483;28;20432;-77
2022/06/26 04:08:40;;;;;;;1.40;1.30;;;22.80;99.90;;;;;;5023911;28;20530;-77
2022/06/26 04:11:08;;;;;;;1.10;1.10;;;22.80;99.90;;;;;;5028376;28;20470;-76
2022/06/26 04:13:36;;;;;;;1.97;1.30;;;22.80;99.90;;;;;;5028119;28;20995;-77
2022/06/26 04:16:06;;;;;;;1.37;1.27;;;22.70;99.90;;;;;;5024454;28;21037;-77
2022/06/26 04:18:34;;;;;;;0.97;0.97;;;22.80;99.90;;;;;;5018566;28;20894;-77
2022/06/26 04:21:04;;;;;;;1.30;1.20;;;22.80;99.90;;;;;;5023958;28;20965;-77
2022/06/26 04:23:32;;;;;;;1.50;1.40;;;22.70;99.90;;;;;;5025421;28;20459;-77
2022/06/26 04:26:00;;;;;;;1.40;1.30;;;22.70;99.90;;;;;;5023227;28;20457;-77
2022/06/26 04:28:28;;;;;;;1.30;1.20;;;22.70;99.90;;;;;;5023580;28;20526;-77
2022/06/26 04:30:57;;;;;;;1.10;1.10;;;22.70;99.90;;;;;;5027371;28;20451;-77
2022/06/26 04:33:26;;;;;;;1.20;1.10;;;22.70;99.90;;;;;;5025203;28;20519;-77
2022/06/26 04:35:54;;;;;;;1.20;1.10;;;22.70;99.90;;;;;;5022985;28;20813;-77
2022/06/26 04:38:23;;;;;;;1.40;1.30;;;22.70;99.90;;;;;;5023692;28;20483;-77
2022/06/26 04:40:51;;;;;;;0.97;0.97;;;22.70;99.90;;;;;;5023442;28;20463;-77
2022/06/26 04:43:19;;;;;;;1.27;1.10;;;22.60;99.90;;;;;;5026374;28;20463;-77
2022/06/26 04:45:47;;;;;;;1.40;1.30;;;22.60;99.90;;;;;;5024925;28;20479;-78
2022/06/26 04:48:15;;;;;;;2.00;1.00;;;22.70;99.90;;;;;;5025254;28;21063;-78
2022/06/26 04:50:45;;;;;;;1.00;1.00;;;22.70;99.90;;;;;;5027422;28;20451;-78
2022/06/26 04:53:13;;;;;;;1.40;1.30;;;22.60;99.90;;;;;;5024031;28;20462;-78
2022/06/26 04:55:41;;;;;;;1.20;1.10;;;22.60;99.90;;;;;;5022502;28;20479;-78
2022/06/26 04:58:09;;;;;;;1.13;1.13;;;22.50;99.90;;;;;;5022453;28;20480;-79
2022/06/26 05:00:37;;;;;;;1.23;1.10;;;22.50;99.90;;;;;;5025355;28;20456;-78
2022/06/26 05:03:06;;;;;;;1.30;1.20;;;22.60;99.90;;;;;;5023803;28;20473;-78
2022/06/26 05:05:34;;;;;;;1.00;1.00;;;22.70;99.90;;;;;;5024699;28;20463;-78
2022/06/26 05:08:04;;;;;;;1.60;1.50;;;22.50;99.90;;;;;;5020685;28;20467;-78
2022/06/26 05:10:32;;;;;;;0.90;0.90;;;22.60;99.90;;;;;;5026046;28;20472;-78
2022/06/26 05:13:00;;;;;;;1.30;1.20;;;22.60;99.90;;;;;;5024960;28;20534;-78
2022/06/26 05:15:29;;;;;;;1.57;1.33;;;22.10;99.90;;;;;;5023968;28;20465;-78
2022/06/26 05:17:57;;;;;;;1.30;1.20;;;22.60;99.90;;;;;;5026399;28;20475;-78
2022/06/26 05:20:25;;;;;;;1.40;1.30;;;22.60;99.90;;;;;;5027324;28;20474;-77
2022/06/26 05:22:53;;;;;;;1.10;1.10;;;22.60;99.90;;;;;;5027774;28;20552;-79
2022/06/26 05:25:23;;;;;;;1.20;1.10;;;22.70;99.90;;;;;;5024923;28;20464;-78
2022/06/26 05:27:51;;;;;;;2.33;1.30;;;22.70;99.90;;;;;;5030394;28;20464;-78
2022/06/26 05:30:20;;;;;;;1.47;1.37;;;22.70;99.90;;;;;;5028627;28;20459;-79
2022/06/26 05:32:48;;;;;;;1.60;1.50;;;22.70;99.90;;;;;;5025355;28;20471;-78
2022/06/26 05:35:16;;;;;;;1.40;1.30;;;22.70;99.90;;;;;;5027876;28;20451;-78
2022/06/26 05:37:44;;;;;;;1.77;1.40;;;22.70;99.90;;;;;;5029171;28;20488;-79
2022/06/26 05:40:13;;;;;;;1.70;1.30;;;22.80;99.90;;;;;;5024475;28;20460;-78
2022/06/26 05:42:43;;;;;;;1.70;1.40;;;22.80;99.90;;;;;;5029037;28;20533;-78
2022/06/26 05:45:12;;;;;;;1.20;1.10;;;22.90;99.90;;;;;;5027346;28;20471;-77
2022/06/26 05:47:40;;;;;;;2.00;1.33;;;22.90;99.90;;;;;;5027055;28;20464;-77
2022/06/26 05:50:09;;;;;;;1.60;1.40;;;22.90;99.90;;;;;;5027319;28;20467;-78
2022/06/26 05:52:38;;;;;;;1.40;1.30;;;22.90;99.90;;;;;;5030900;28;20510;-78
2022/06/26 05:55:06;;;;;;;1.40;1.30;;;22.90;99.90;;;;;;5027992;28;20452;-77
2022/06/26 05:57:35;;;;;;;1.67;1.57;;;22.90;99.90;;;;;;5025180;28;20483;-79
2022/06/26 06:00:08;;;;;;;1.90;1.80;;;22.90;99.90;;;;;;5025594;28;20971;-79
2022/06/26 06:02:36;;;;;;;1.97;1.30;;;22.90;99.90;;;;;;5026417;28;20520;-79
2022/06/26 06:05:05;;;;;;;1.50;1.40;;;22.90;99.90;;;;;;5027441;28;20448;-77
2022/06/26 06:07:35;;;;;;;1.93;1.70;;;23.00;99.90;;;;;;5023894;28;20465;-78
2022/06/26 06:10:05;;;;;;;1.50;1.40;;;22.90;99.90;;;;;;5026260;28;20948;-78
2022/06/26 06:12:34;;;;;;;1.20;1.20;;;22.90;99.90;;;;;;5028493;28;20447;-78
2022/06/26 06:15:03;;;;;;;1.67;1.30;;;23.00;99.90;;;;;;5023745;28;20447;-78
2022/06/26 06:17:40;;;;;;;1.70;1.30;;;23.00;99.90;;;;;;5028286;28;20557;-78
2022/06/26 06:20:12;;;;;;;1.10;1.10;;;23.10;99.90;;;;;;5017523;28;20456;-77
2022/06/26 06:22:41;;;;;;;3.23;1.10;;;23.10;99.90;;;;;;5026004;28;20463;-77
2022/06/26 06:25:10;;;;;;;1.23;1.20;;;23.20;99.90;;;;;;5025468;28;20452;-77
2022/06/26 06:27:44;;;;;;;1.20;1.00;;;23.20;99.90;;;;;;5028431;28;20494;-78
2022/06/26 06:30:13;;;;;;;1.30;1.20;;;23.30;99.90;;;;;;5024123;28;20456;-78
2022/06/26 06:32:45;;;;;;;0.90;0.90;;;23.30;99.90;;;;;;5029050;28;20472;-78
2022/06/26 06:35:14;;;;;;;1.00;1.00;;;23.30;99.90;;;;;;5029876;28;20452;-79
2022/06/26 06:37:45;;;;;;;1.70;1.00;;;23.40;99.90;;;;;;5031085;28;20533;-77
2022/06/26 06:40:14;;;;;;;1.43;1.33;;;23.40;99.90;;;;;;5032357;28;20456;-76
2022/06/26 06:42:44;;;;;;;1.43;1.13;;;23.40;99.90;;;;;;5032944;28;20458;-77
2022/06/26 06:45:12;;;;;;;3.00;1.10;;;23.50;99.90;;;;;;5026160;28;20514;-78
2022/06/26 06:47:40;;;;;;;1.33;1.23;;;23.50;99.90;;;;;;5027954;28;20538;-77
2022/06/26 06:50:11;;;;;;;1.50;1.40;;;23.60;99.90;;;;;;5021085;28;20834;-77
2022/06/26 06:52:39;;;;;;;1.10;1.10;;;23.60;99.90;;;;;;5024989;28;20447;-78
2022/06/26 06:55:08;;;;;;;1.17;1.10;;;23.70;99.90;;;;;;5024426;28;20460;-74
2022/06/26 06:57:37;;;;;;;2.10;1.00;;;23.20;99.90;;;;;;5027760;28;20476;-75
2022/06/26 07:00:06;;;;;;;1.10;1.07;;;23.70;99.90;;;;;;5025674;28;21344;-75
2022/06/26 07:02:37;;;;;;;1.10;1.00;;;23.80;99.90;;;;;;5027050;28;20464;-75
2022/06/26 07:05:09;;;;;;;0.87;0.87;;;23.80;99.90;;;;;;5027233;28;20456;-74
2022/06/26 07:07:39;;;;;;;2.90;0.97;;;23.90;99.90;;;;;;5027367;28;20445;-74
2022/06/26 07:10:09;;;;;;;1.10;1.00;;;24.00;99.90;;;;;;5027035;28;20527;-72
2022/06/26 07:12:38;;;;;;;1.50;1.10;;;24.00;99.90;;;;;;5025996;28;20460;-73
2022/06/26 07:15:07;;;;;;;0.90;0.90;;;24.00;99.90;;;;;;5026626;28;20460;-75
2022/06/26 07:17:35;;;;;;;1.20;1.10;;;24.10;99.90;;;;;;5028023;28;20476;-74
2022/06/26 07:20:04;;;;;;;1.87;1.20;;;24.10;99.90;;;;;;5028597;28;20464;-74
2022/06/26 07:22:33;;;;;;;1.67;1.10;;;24.20;99.90;;;;;;5029250;28;20462;-75
2022/06/26 07:25:02;;;;;;;0.90;0.90;;;24.20;99.90;;;;;;5026216;28;20461;-74
2022/06/26 07:27:31;;;;;;;1.97;1.80;;;24.10;99.90;;;;;;5027886;28;20450;-74
2022/06/26 07:30:00;;;;;;;3.60;3.30;;;24.20;99.90;;;;;;5028676;28;20459;-73
2022/06/26 07:32:28;;;;;;;1.60;1.50;;;24.20;99.90;;;;;;5031327;28;20471;-73
2022/06/26 07:34:57;;;;;;;2.03;1.83;;;24.20;99.90;;;;;;5028778;28;20455;-74
2022/06/26 07:37:25;;;;;;;1.30;1.20;;;24.30;99.90;;;;;;5025735;28;20485;-74
2022/06/26 07:39:53;;;;;;;1.53;1.10;;;24.30;99.90;;;;;;5025213;28;20539;-76
2022/06/26 07:42:23;;;;;;;3.73;1.30;;;24.30;99.90;;;;;;5022693;28;20453;-74
2022/06/26 07:44:51;;;;;;;2.30;1.20;;;24.30;99.90;;;;;;5025883;28;20464;-76
2022/06/26 07:47:19;;;;;;;1.03;1.03;;;24.40;99.90;;;;;;5027072;28;20456;-74
2022/06/26 07:49:48;;;;;;;1.20;1.10;;;24.40;99.90;;;;;;5020366;28;20460;-79
2022/06/26 07:52:16;;;;;;;1.87;1.40;;;24.40;99.90;;;;;;5024535;28;21038;-79
2022/06/26 07:54:44;;;;;;;1.70;1.60;;;24.50;99.90;;;;;;5027365;28;20460;-79
2022/06/26 07:57:12;;;;;;;1.90;1.70;;;24.50;99.90;;;;;;5032224;28;20486;-79
2022/06/26 07:59:42;;;;;;;1.60;1.50;;;24.50;99.90;;;;;;5024879;28;20473;-78
2022/06/26 08:02:10;;;;;;;1.40;1.30;;;24.50;99.90;;;;;;5026652;28;20475;-83
2022/06/26 08:04:39;;;;;;;1.50;1.10;;;24.60;99.90;;;;;;5037980;28;20567;-81
2022/06/26 08:07:07;;;;;;;0.90;0.90;;;24.60;99.90;;;;;;5060995;28;20463;-81
2022/06/26 08:09:35;;;;;;;1.00;1.00;;;24.60;99.90;;;;;;5030306;28;20469;-83
2022/06/26 08:12:04;;;;;;;3.07;2.10;;;24.70;99.90;;;;;;5027283;28;20497;-82
2022/06/26 08:14:32;;;;;;;3.40;2.30;;;24.70;99.90;;;;;;5028267;28;20817;-82
2022/06/26 08:17:02;;;;;;;4.13;2.13;;;24.80;99.90;;;;;;5043641;28;20452;-79
2022/06/26 08:19:30;;;;;;;0.97;0.90;;;24.80;99.90;;;;;;5032893;28;20488;-83
2022/06/26 08:22:02;;;;;;;0.70;0.70;;;24.90;99.90;;;;;;5032632;28;20457;-83
2022/06/26 08:24:31;;;;;;;1.00;1.00;;;25.00;99.90;;;;;;5032972;28;20443;-83
2022/06/26 08:26:59;;;;;;;0.80;0.80;;;25.00;99.90;;;;;;5031661;28;20448;-82
2022/06/26 08:29:28;;;;;;;0.93;0.93;;;25.00;99.90;;;;;;5033299;28;20474;-83
2022/06/26 08:31:56;;;;;;;0.80;0.80;;;25.00;99.90;;;;;;5028656;28;20616;-83
2022/06/26 08:34:27;;;;;;;0.93;0.93;;;25.10;99.90;;;;;;5026108;28;20451;-83
2022/06/26 08:36:55;;;;;;;1.40;0.90;;;25.10;99.90;;;;;;5038953;28;20452;-84
2022/06/26 08:39:25;;;;;;;0.80;0.80;;;25.10;99.90;;;;;;5032832;28;20480;-83
2022/06/26 08:41:54;;;;;;;1.87;0.90;;;25.10;99.90;;;;;;5033039;28;21318;-83
2022/06/26 08:44:25;;;;;;;1.03;0.70;;;25.10;99.90;;;;;;5036087;28;20455;-83
2022/06/26 08:46:55;;;;;;;1.23;1.07;;;25.20;99.90;;;;;;5037378;28;20444;-84
2022/06/26 08:49:25;;;;;;;0.87;0.87;;;25.20;99.90;;;;;;5032346;28;20483;-82
2022/06/26 08:51:59;;;;;;;0.93;0.83;;;25.20;99.90;;;;;;5030174;28;20467;-83
2022/06/26 08:54:29;;;;;;;1.43;1.33;;;25.30;99.90;;;;;;5040748;28;20575;-83
2022/06/26 08:56:58;;;;;;;1.70;1.10;;;25.30;99.90;;;;;;5032211;28;20963;-83
2022/06/26 08:59:27;;;;;;;1.00;1.00;;;25.30;99.90;;;;;;5032155;28;20976;-83
2022/06/26 09:01:56;;;;;;;0.93;0.93;;;25.30;99.90;;;;;;5031412;28;20531;-84
2022/06/26 09:04:26;;;;;;;1.63;0.90;;;25.40;99.90;;;;;;5061312;28;20506;-83
2022/06/26 09:06:55;;;;;;;1.10;1.00;;;25.50;99.90;;;;;;5031519;28;20458;-83
2022/06/26 09:09:27;;;;;;;1.27;1.00;;;25.50;99.90;;;;;;5032359;28;20464;-84
2022/06/26 09:11:56;;;;;;;1.20;0.90;;;25.50;99.90;;;;;;5032208;28;20471;-83
2022/06/26 09:14:26;;;;;;;1.50;1.00;;;25.50;99.90;;;;;;5020199;28;20451;-84
2022/06/26 09:16:55;;;;;;;1.10;1.00;;;25.60;99.90;;;;;;5023205;28;20453;-83
2022/06/26 09:19:29;;;;;;;1.10;1.00;;;25.60;99.90;;;;;;5025011;28;20468;-83
2022/06/26 09:22:07;;;;;;;0.90;0.90;;;25.70;99.90;;;;;;5032447;28;20491;-84
2022/06/26 09:24:37;;;;;;;0.87;0.80;;;25.80;99.90;;;;;;5032221;28;20916;-83
2022/06/26 09:27:10;;;;;;;1.67;1.03;;;25.80;99.90;;;;;;5031037;28;20452;-84
2022/06/26 09:29:40;;;;;;;1.43;1.00;;;25.80;99.90;;;;;;5031667;28;20463;-84
2022/06/26 09:32:10;;;;;;;0.90;0.90;;;25.80;99.90;;;;;;5038111;28;20462;-83
2022/06/26 09:34:44;;;;;;;1.23;0.80;;;25.90;99.90;;;;;;5036744;28;20452;-83
2022/06/26 09:37:12;;;;;;;1.20;1.07;;;26.00;99.90;;;;;;5032035;28;20462;-83
2022/06/26 09:39:42;;;;;;;0.93;0.90;;;26.00;99.90;;;;;;5032331;28;20480;-84
2022/06/26 09:42:18;;;;;;;0.90;0.90;;;26.00;99.90;;;;;;5032044;28;20459;-84
2022/06/26 09:44:47;;;;;;;0.80;0.80;;;26.10;99.90;;;;;;5031996;28;20767;-84
2022/06/26 09:47:26;;;;;;;1.00;0.90;;;26.10;99.90;;;;;;5037020;28;20465;-84
2022/06/26 09:49:58;;;;;;;0.83;0.83;;;26.00;99.90;;;;;;5033206;28;20952;-84
2022/06/26 09:52:29;;;;;;;1.10;1.00;;;26.10;99.90;;;;;;5012446;28;20473;-84
2022/06/26 09:54:59;;;;;;;0.90;0.90;;;26.10;99.90;;;;;;5060586;28;20535;-86
2022/06/26 09:57:29;;;;;;;0.80;0.80;;;26.10;99.90;;;;;;5031887;28;20500;-85
2022/06/26 09:59:58;;;;;;;1.20;1.00;;;26.20;99.90;;;;;;5031480;28;20472;-85
2022/06/26 10:08:04;;;;;;;0.97;0.97;;;26.20;99.90;;;;;;5033992;28;20484;-86
2022/06/26 10:10:37;;;;;;;0.80;0.80;;;26.20;99.90;;;;;;5035163;28;20451;-85
2022/06/26 10:13:07;;;;;;;0.90;0.90;;;26.30;99.90;;;;;;5035377;28;20440;-85
2022/06/26 10:15:42;;;;;;;0.90;0.90;;;26.40;99.90;;;;;;5033053;28;20445;-85
2022/06/26 10:18:38;;;;;;;1.00;0.70;;;26.40;99.90;;;;;;5034607;28;21018;-86
2022/06/26 10:21:12;;;;;;;0.97;0.97;;;26.40;99.90;;;;;;5033742;28;20475;-85
2022/06/26 10:23:42;;;;;;;1.53;1.43;;;26.40;99.90;;;;;;5035107;28;20490;-84
2022/06/26 10:26:16;;;;;;;2.63;2.43;;;26.40;99.90;;;;;;5033894;28;20436;-85
2022/06/26 10:29:01;;;;;;;3.87;3.30;;;26.50;99.90;;;;;;5031510;28;20476;-84
2022/06/26 10:31:31;;;;;;;1.73;1.63;;;26.50;99.90;;;;;;5027652;28;20468;-84
2022/06/26 10:34:11;;;;;;;1.07;1.07;;;26.50;99.90;;;;;;5031840;28;20441;-86
2022/06/26 10:36:41;;;;;;;0.80;0.80;;;26.60;99.90;;;;;;5024017;28;20457;-86
2022/06/26 10:39:09;;;;;;;0.90;0.90;;;26.50;99.90;;;;;;5036556;28;20490;-85
2022/06/26 10:44:38;;;;;;;1.13;0.90;;;26.70;99.90;;;;;;5034300;28;20452;-87
2022/06/26 10:47:14;;;;;;;0.80;0.80;;;26.70;99.90;;;;;;5035156;28;20542;-87
2022/06/26 10:49:53;;;;;;;0.97;0.97;;;26.70;99.90;;;;;;5038374;28;20545;-87
2022/06/26 10:52:28;;;;;;;0.90;0.90;;;26.80;99.90;;;;;;5029533;28;20456;-86
2022/06/26 10:54:59;;;;;;;1.17;0.90;;;26.80;99.90;;;;;;5029845;28;20456;-87
2022/06/26 10:57:36;;;;;;;0.87;0.87;;;26.80;99.90;;;;;;5029612;28;20457;-86
2022/06/26 11:00:08;;;;;;;1.97;1.00;;;26.80;99.90;;;;;;5035567;28;20473;-82
2022/06/26 11:02:37;;;;;;;2.17;1.20;;;26.80;99.90;;;;;;5030363;28;20952;-82
2022/06/26 11:05:08;;;;;;;1.10;1.00;;;26.80;99.90;;;;;;5030377;28;20457;-81
2022/06/26 11:07:49;;;;;;;1.53;0.97;;;26.70;99.90;;;;;;5030505;28;20451;-84
2022/06/26 11:10:20;;;;;;;1.07;1.03;;;26.70;99.90;;;;;;5024796;28;20452;-84
2022/06/26 11:12:50;;;;;;;1.40;1.30;;;26.70;99.90;;;;;;5020820;28;20481;-83
2022/06/26 11:15:24;;;;;;;1.30;1.20;;;26.70;99.90;;;;;;5027320;28;20562;-83
2022/06/26 11:17:54;;;;;;;2.13;1.00;;;26.70;99.90;;;;;;5029146;28;20480;-84
2022/06/26 11:23:15;;;;;;;1.60;1.50;;;26.70;99.90;;;;;;5031063;28;20468;-84
2022/06/26 11:25:43;;;;;;;1.80;1.07;;;26.70;99.90;;;;;;5032764;28;20474;-83
2022/06/26 11:28:13;;;;;;;1.20;1.10;;;26.70;99.90;;;;;;5020019;28;20491;-84
2022/06/26 11:30:46;;;;;;;0.90;0.90;;;26.70;99.90;;;;;;5026125;28;20452;-84
2022/06/26 11:33:24;;;;;;;1.20;1.10;;;26.80;99.90;;;;;;5027580;28;20459;-85
2022/06/26 11:35:53;;;;;;;1.73;1.00;;;26.80;99.90;;;;;;5025033;28;20464;-85
2022/06/26 11:38:24;;;;;;;0.93;0.80;;;26.80;99.90;;;;;;5016915;28;20484;-85
2022/06/26 11:40:52;;;;;;;1.17;1.00;;;26.80;99.90;;;;;;5024335;28;20483;-87
2022/06/26 11:43:20;;;;;;;4.20;1.00;;;26.70;99.90;;;;;;5027326;28;20480;-85
2022/06/26 11:45:48;;;;;;;1.17;0.97;;;26.80;99.90;;;;;;5023064;28;20488;-86
2022/06/26 11:48:18;;;;;;;0.90;0.90;;;26.80;99.90;;;;;;5030689;28;20959;-84
2022/06/26 11:50:50;;;;;;;1.93;0.90;;;26.80;99.90;;;;;;5034604;28;20468;-84
2022/06/26 11:53:21;;;;;;;0.83;0.83;;;26.80;99.90;;;;;;5028587;28;20940;-84
2022/06/26 11:55:53;;;;;;;1.70;1.00;;;26.80;99.90;;;;;;5032791;28;20468;-86
2022/06/26 11:58:24;;;;;;;1.43;1.00;;;26.80;99.90;;;;;;5019539;28;20492;-84
2022/06/26 12:01:04;;;;;;;1.47;1.00;;;26.80;99.90;;;;;;5024287;28;20484;-85
2022/06/26 12:03:32;;;;;;;0.90;0.90;;;26.80;99.90;;;;;;5022884;28;20453;-84
2022/06/26 12:06:00;;;;;;;2.17;1.30;;;26.80;99.90;;;;;;5028342;28;20461;-84
2022/06/26 12:08:30;;;;;;;0.87;0.87;;;26.80;99.90;;;;;;5023463;28;21090;-85
2022/06/26 12:11:01;;;;;;;1.00;0.90;;;26.90;99.90;;;;;;5020210;28;20449;-83
2022/06/26 12:13:32;;;;;;;1.30;1.10;;;26.80;99.90;;;;;;5017457;28;20449;-85
2022/06/26 12:16:05;;;;;;;1.17;1.10;;;26.80;99.90;;;;;;5020947;28;20471;-84
2022/06/26 12:18:36;;;;;;;1.10;0.87;;;26.90;99.90;;;;;;5020958;28;20480;-84
2022/06/26 12:21:16;;;;;;;0.90;0.90;;;26.80;99.90;;;;;;5017441;28;20495;-84
2022/06/26 12:23:45;;;;;;;1.20;1.10;;;26.80;99.90;;;;;;5023388;28;20459;-84
2022/06/26 12:26:18;;;;;;;0.97;0.90;;;26.80;99.90;;;;;;5023609;28;20467;-84
2022/06/26 12:28:49;;;;;;;0.90;0.90;;;26.90;99.90;;;;;;5033169;28;20471;-83
2022/06/26 12:31:19;;;;;;;2.87;1.77;;;26.90;99.90;;;;;;5018022;28;20464;-81
2022/06/26 12:33:48;;;;;;;1.70;1.60;;;27.00;99.90;;;;;;5021203;28;20458;-82
2022/06/26 12:36:17;;;;;;;3.90;0.90;;;27.00;99.90;;;;;;5024520;28;20448;-81
2022/06/26 12:38:47;;;;;;;1.13;1.03;;;27.00;99.90;;;;;;5032990;28;20475;-82
2022/06/26 12:41:20;;;;;;;2.70;1.10;;;27.00;99.90;;;;;;5023811;28;20838;-81
2022/06/26 12:43:50;;;;;;;1.00;0.90;;;27.00;99.90;;;;;;5026924;28;20452;-81
2022/06/26 12:46:26;;;;;;;0.93;0.93;;;27.00;99.90;;;;;;5025864;28;20469;-81
2022/06/26 12:48:54;;;;;;;1.30;0.90;;;27.00;99.90;;;;;;5021138;28;20488;-81
2022/06/26 12:51:23;;;;;;;1.10;1.00;;;27.00;99.90;;;;;;5026775;28;20460;-81
2022/06/26 12:53:52;;;;;;;1.00;1.00;;;27.00;99.90;;;;;;5025025;28;20565;-82
2022/06/26 12:56:22;;;;;;;1.73;1.00;;;27.00;99.90;;;;;;5024152;28;20490;-81
2022/06/26 12:58:51;;;;;;;2.60;1.17;;;27.00;99.90;;;;;;5024635;28;21047;-82
2022/06/26 13:01:19;;;;;;;1.03;0.90;;;27.00;99.90;;;;;;5018411;28;20488;-82
2022/06/26 13:03:55;;;;;;;0.90;0.90;;;27.00;99.90;;;;;;5019984;28;20445;-81
2022/06/26 13:06:23;;;;;;;1.00;0.90;;;27.00;99.90;;;;;;5022043;28;20848;-84
2022/06/26 13:08:51;;;;;;;1.47;0.90;;;27.10;99.90;;;;;;5028150;28;20857;-83
2022/06/26 13:11:24;;;;;;;1.03;1.00;;;27.10;99.90;;;;;;5026332;28;20936;-83
2022/06/26 13:13:53;;;;;;;1.27;1.17;;;27.10;99.90;;;;;;5023100;28;20923;-83
2022/06/26 13:16:38;;;;;;;1.43;0.93;;;27.00;99.90;;;;;;5028376;28;20476;-84